createdAt,value
2023-03-05T00:00:11.236Z,100000.84
2023-03-05T00:03:14.761Z,99997.62
2023-03-05T00:06:21.927Z,100004.66
2023-03-05T00:09:27.577Z,100004.56
2023-03-05T00:12:32.130Z,100001.25
2023-03-05T00:15:41.697Z,99999.63
2023-03-05T00:18:45.852Z,100004.97
2023-03-05T00:21:57.578Z,100004.97
2023-03-05T00:25:02.195Z,100003.34
2023-03-05T00:28:11.632Z,99995.91
2023-03-05T00:31:14.300Z,100013.97
2023-03-05T00:34:18.441Z,100008.94
2023-03-05T00:37:24.395Z,99994.81
2023-03-05T00:40:27.553Z,99992.28
2023-03-05T00:43:31.711Z,99995.00
2023-03-05T00:46:38.363Z,99995.03
2023-03-05T00:49:46.520Z,99995.13
2023-03-05T00:52:59.345Z,99987.31
2023-03-05T00:56:08.359Z,99988.22
2023-03-05T00:59:12.584Z,99990.03
2023-03-05T01:02:18.296Z,99983.78
2023-03-05T01:05:24.069Z,99977.75
2023-03-05T01:08:29.574Z,99976.78
2023-03-05T01:11:34.361Z,99988.59
2023-03-05T01:14:45.745Z,99987.78
2023-03-05T01:17:50.382Z,99985.78
2023-03-05T01:20:54.898Z,99984.69
2023-03-05T01:24:00.129Z,99982.62
2023-03-05T01:27:04.100Z,99992.78
2023-03-05T01:30:15.221Z,99977.81
2023-03-05T01:33:26.403Z,99985.50
2023-03-05T01:36:34.329Z,99994.84
2023-03-05T01:39:38.635Z,99992.19
2023-03-05T01:42:47.161Z,99999.13
2023-03-05T01:46:09.176Z,99989.72
2023-03-05T01:49:16.216Z,99987.34
2023-03-05T01:52:22.857Z,99989.09
2023-03-05T01:55:29.951Z,99986.72
2023-03-05T01:58:38.153Z,99985.06
2023-03-05T02:01:48.242Z,99973.91
2023-03-05T02:04:57.043Z,99975.66
2023-03-05T02:08:00.951Z,99982.44
2023-03-05T02:11:05.032Z,99978.09
2023-03-05T02:14:10.948Z,99979.84
2023-03-05T02:17:19.365Z,99984.22
2023-03-05T02:20:24.505Z,99988.53
2023-03-05T02:23:47.430Z,99984.13
2023-03-05T02:26:55.681Z,99974.47
2023-03-05T02:30:04.610Z,99981.50
2023-03-05T02:33:11.583Z,99978.03
2023-03-05T02:36:16.558Z,99977.87
2023-03-05T02:39:22.676Z,99977.69
2023-03-05T02:42:26.394Z,99981.31
2023-03-05T02:45:35.221Z,99977.87
2023-03-05T02:48:55.211Z,99976.72
2023-03-05T02:52:01.297Z,99980.25
2023-03-05T02:55:16.246Z,99985.69
2023-03-05T02:58:29.784Z,99986.25
2023-03-05T03:01:40.553Z,99974.91
2023-03-05T03:04:48.264Z,99973.38
2023-03-05T03:07:55.723Z,99981.94
2023-03-05T03:11:05.316Z,99981.00
2023-03-05T03:14:15.675Z,99974.34
2023-03-05T03:17:23.476Z,99969.97
2023-03-05T03:20:29.015Z,99974.09
2023-03-05T03:23:36.005Z,99987.03
2023-03-05T03:26:40.132Z,99980.22
2023-03-05T03:29:45.831Z,99976.81
2023-03-05T03:32:48.500Z,99980.25
2023-03-05T03:36:05.076Z,99979.25
2023-03-05T03:39:17.911Z,99969.97
2023-03-05T03:42:23.448Z,99964.03
2023-03-05T03:45:28.794Z,99967.56
2023-03-05T03:48:32.770Z,99969.81
2023-03-05T03:51:37.704Z,99965.38
2023-03-05T03:54:44.125Z,99967.88
2023-03-05T03:57:49.161Z,99971.19
2023-03-05T04:01:00.664Z,99974.78
2023-03-05T04:04:07.020Z,99965.38
2023-03-05T04:07:12.825Z,99979.72
2023-03-05T04:10:21.704Z,99968.38
2023-03-05T04:13:32.683Z,99964.75
2023-03-05T04:16:39.873Z,99968.13
2023-03-05T04:19:47.071Z,99965.72
2023-03-05T04:22:54.977Z,99959.75
2023-03-05T04:26:03.305Z,99960.88
2023-03-05T04:29:08.170Z,99964.91
2023-03-05T04:32:16.850Z,99955.56
2023-03-05T04:35:19.989Z,99960.63
2023-03-05T04:38:25.283Z,99962.31
2023-03-05T04:41:31.389Z,99958.34
2023-03-05T04:44:40.270Z,99956.41
2023-03-05T04:47:46.154Z,99958.84
2023-03-05T04:50:52.094Z,99959.66
2023-03-05T04:53:59.892Z,99956.09
2023-03-05T04:57:07.286Z,99959.66
2023-03-05T05:00:17.258Z,99960.38
2023-03-05T05:03:24.861Z,99952.22
2023-03-05T05:06:29.719Z,99954.72
2023-03-05T05:09:37.799Z,99953.66
2023-03-05T05:12:44.182Z,99955.69
2023-03-05T05:15:46.740Z,99957.31
2023-03-05T05:18:52.415Z,99952.91
2023-03-05T05:21:56.306Z,99958.59
2023-03-05T05:25:01.566Z,99961.75
2023-03-05T05:28:06.808Z,99959.38
2023-03-05T05:31:15.272Z,99963.91
2023-03-05T05:34:19.032Z,99967.41
2023-03-05T05:37:28.367Z,99965.56
2023-03-05T05:40:35.154Z,99961.88
2023-03-05T05:43:38.964Z,99970.94
2023-03-05T05:46:44.360Z,99966.41
2023-03-05T05:49:48.836Z,99967.44
2023-03-05T05:52:54.949Z,99976.38
2023-03-05T05:55:58.232Z,99985.44
2023-03-05T05:59:03.443Z,100003.75
2023-03-05T06:02:12.437Z,99998.59
2023-03-05T06:05:18.013Z,99988.59
2023-03-05T06:08:23.471Z,99992.69
2023-03-05T06:11:28.211Z,99990.88
2023-03-05T06:14:44.000Z,99989.12
2023-03-05T06:17:51.710Z,99991.94
2023-03-05T06:20:58.288Z,99995.41
2023-03-05T06:24:03.105Z,99994.13
2023-03-05T06:27:15.730Z,99996.28
2023-03-05T06:30:19.962Z,99995.34
2023-03-05T06:33:31.213Z,99997.25
2023-03-05T06:36:35.040Z,99996.44
2023-03-05T06:39:42.744Z,99994.31
2023-03-05T06:42:50.036Z,100001.81
2023-03-05T06:46:07.305Z,100001.97
2023-03-05T06:49:13.934Z,99994.81
2023-03-05T06:52:17.441Z,99998.63
2023-03-05T06:55:23.107Z,100005.91
2023-03-05T06:58:25.582Z,100003.22
2023-03-05T07:01:33.172Z,99998.53
2023-03-05T07:04:41.094Z,100002.87
2023-03-05T07:07:50.320Z,99999.06
2023-03-05T07:10:59.146Z,99998.88
2023-03-05T07:14:06.871Z,99997.84
2023-03-05T07:17:12.355Z,99998.34
2023-03-05T07:20:15.798Z,99992.72
2023-03-05T07:23:21.369Z,99990.84
2023-03-05T07:26:28.462Z,99995.03
2023-03-05T07:29:34.528Z,100003.03
2023-03-05T07:32:39.198Z,100001.12
2023-03-05T07:35:43.064Z,99999.31
2023-03-05T07:38:52.294Z,99996.25
2023-03-05T07:41:55.814Z,99990.66
2023-03-05T07:44:59.386Z,99988.50
2023-03-05T07:48:02.096Z,99983.41
2023-03-05T07:51:10.191Z,99985.91
2023-03-05T07:54:13.859Z,99985.56
2023-03-05T07:57:18.420Z,99990.62
2023-03-05T08:00:24.686Z,99983.66
2023-03-05T08:03:28.124Z,99987.16
2023-03-05T08:06:32.830Z,99985.00
2023-03-05T08:09:40.636Z,99985.59
2023-03-05T08:12:46.192Z,99986.75
2023-03-05T08:15:52.058Z,99982.31
2023-03-05T08:18:59.304Z,99982.81
2023-03-05T08:22:04.365Z,99970.97
2023-03-05T08:25:08.899Z,99985.59
2023-03-05T08:28:13.991Z,99994.19
2023-03-05T08:31:25.999Z,99993.09
2023-03-05T08:34:30.461Z,99993.16
2023-03-05T08:37:36.220Z,99987.69
2023-03-05T08:40:43.906Z,99988.53
2023-03-05T08:43:47.169Z,99983.91
2023-03-05T08:46:54.162Z,99994.03
2023-03-05T08:50:13.611Z,99979.44
2023-03-05T08:53:21.290Z,99996.16
2023-03-05T08:56:36.151Z,99994.00
2023-03-05T08:59:42.639Z,99983.78
2023-03-05T09:02:57.656Z,99976.31
2023-03-05T09:06:03.251Z,99972.84
2023-03-05T09:12:31.551Z,99968.00
2023-03-05T09:15:35.445Z,99967.97
2023-03-05T09:18:42.755Z,99971.59
2023-03-05T09:21:55.374Z,99975.84
2023-03-05T09:25:06.575Z,99973.88
2023-03-05T09:28:13.034Z,99970.00
2023-03-05T09:31:18.587Z,99971.03
2023-03-05T09:34:25.288Z,99964.38
2023-03-05T09:37:35.145Z,99961.19
2023-03-05T09:41:11.281Z,99968.34
2023-03-05T09:44:43.062Z,99962.53
2023-03-05T09:47:58.494Z,99965.25
2023-03-05T09:51:07.046Z,99961.03
2023-03-05T09:54:22.435Z,99965.53
2023-03-05T09:57:35.358Z,99957.56
2023-03-05T10:00:48.816Z,99963.97
2023-03-05T10:04:10.788Z,99952.72
2023-03-05T10:07:22.768Z,99945.88
2023-03-05T10:10:44.667Z,99941.09
2023-03-05T10:13:55.399Z,99951.00
2023-03-05T10:17:14.309Z,99941.56
2023-03-05T10:20:26.700Z,99938.53
2023-03-05T10:23:35.548Z,99938.53
2023-03-05T10:26:44.388Z,99941.22
2023-03-05T10:29:57.601Z,99944.16
2023-03-05T10:33:07.969Z,99936.00
2023-03-05T10:36:25.064Z,99925.00
2023-03-05T10:39:35.664Z,99921.03
2023-03-05T10:42:42.142Z,99922.69
2023-03-05T10:45:47.594Z,99924.81
2023-03-05T10:48:58.763Z,99907.69
2023-03-05T10:52:06.898Z,99909.34
2023-03-05T10:55:24.116Z,99916.91
2023-03-05T10:58:29.670Z,99915.22
2023-03-05T11:04:53.864Z,99910.37
2023-03-05T11:08:00.879Z,99897.66
2023-03-05T11:11:06.241Z,99902.50
2023-03-05T11:14:37.874Z,99894.06
2023-03-05T11:17:52.759Z,99885.97
2023-03-05T11:21:29.299Z,99888.56
2023-03-05T11:24:37.002Z,99881.47
2023-03-05T11:27:54.797Z,99887.16
2023-03-05T11:31:08.795Z,99879.97
2023-03-05T11:34:19.301Z,99880.22
2023-03-05T11:37:34.696Z,99882.00
2023-03-05T11:40:49.609Z,99880.34
2023-03-05T11:44:00.813Z,99872.81
2023-03-05T11:47:18.017Z,99868.94
2023-03-05T11:50:32.474Z,99861.69
2023-03-05T11:53:38.744Z,99855.81
2023-03-05T11:56:43.468Z,99855.16
2023-03-05T11:59:46.677Z,99845.62
2023-03-05T12:02:54.804Z,99850.19
2023-03-05T12:06:03.318Z,99852.25
2023-03-05T12:09:32.887Z,99848.75
2023-03-05T12:13:04.190Z,99836.28
2023-03-05T12:16:13.852Z,99833.84
2023-03-05T12:19:18.883Z,99826.19
2023-03-05T12:22:29.846Z,99823.56
2023-03-05T12:25:47.183Z,99804.38
2023-03-05T12:28:54.473Z,99819.44
2023-03-05T12:32:00.637Z,99805.69
2023-03-05T12:35:19.329Z,99800.72
2023-03-05T12:38:34.415Z,99804.13
2023-03-05T12:41:41.813Z,99794.03
2023-03-05T12:44:51.952Z,99793.56
2023-03-05T12:47:58.599Z,99782.19
2023-03-05T12:51:01.693Z,99774.03
2023-03-05T12:54:26.696Z,99777.47
2023-03-05T12:57:34.906Z,99769.25
2023-03-05T13:00:46.823Z,99766.03
2023-03-05T13:04:16.627Z,99759.69
2023-03-05T13:07:21.578Z,99762.72
2023-03-05T13:10:30.860Z,99778.47
2023-03-05T13:13:41.785Z,99766.63
2023-03-05T13:16:46.343Z,99782.28
2023-03-05T13:19:52.680Z,99777.78
2023-03-05T13:23:15.935Z,99773.41
2023-03-05T13:26:20.485Z,99765.50
2023-03-05T13:29:30.003Z,99759.28
2023-03-05T13:32:36.657Z,99761.59
2023-03-05T13:35:45.164Z,99762.19
2023-03-05T13:38:53.932Z,99747.94
2023-03-05T13:42:00.927Z,99763.78
2023-03-05T13:45:15.993Z,99758.94
2023-03-05T13:48:21.540Z,99757.53
2023-03-05T13:51:28.342Z,99760.44
2023-03-05T13:54:32.649Z,99744.84
2023-03-05T13:57:47.749Z,99746.50
2023-03-05T14:01:06.632Z,99757.31
2023-03-05T14:04:21.421Z,99748.16
2023-03-05T14:07:39.437Z,99759.47
2023-03-05T14:10:43.515Z,99760.16
2023-03-05T14:13:51.830Z,99760.25
2023-03-05T14:17:01.766Z,99742.97
2023-03-05T14:20:17.919Z,99738.12
2023-03-05T14:23:30.821Z,99737.22
2023-03-05T14:26:37.621Z,99737.31
2023-03-05T14:29:52.565Z,99734.97
2023-03-05T14:33:00.793Z,99739.25
2023-03-05T14:36:10.128Z,99725.56
2023-03-05T14:39:33.925Z,99724.78
2023-03-05T14:42:57.478Z,99716.34
2023-03-05T14:46:01.500Z,99712.22
2023-03-05T14:49:05.598Z,99701.41
2023-03-05T14:52:17.622Z,99712.78
2023-03-05T14:55:29.299Z,99717.13
2023-03-05T14:58:38.346Z,99727.75
2023-03-05T15:01:41.556Z,99717.59
2023-03-05T15:04:46.789Z,99709.41
2023-03-05T15:07:50.606Z,99713.75
2023-03-05T15:10:54.302Z,99710.75
2023-03-05T15:13:59.437Z,99722.66
2023-03-05T15:17:10.986Z,99719.50
2023-03-05T15:20:33.263Z,99720.56
2023-03-05T15:23:40.660Z,99717.78
2023-03-05T15:26:50.259Z,99717.41
2023-03-05T15:29:54.696Z,99716.59
2023-03-05T15:33:02.130Z,99719.72
2023-03-05T15:36:05.317Z,99718.44
2023-03-05T15:39:08.101Z,99715.03
2023-03-05T15:42:15.296Z,99712.19
2023-03-05T15:45:18.402Z,99714.47
2023-03-05T15:48:21.493Z,99720.41
2023-03-05T15:51:26.100Z,99723.62
2023-03-05T15:54:29.104Z,99722.72
2023-03-05T15:57:35.057Z,99719.37
2023-03-05T16:00:49.152Z,99725.19
2023-03-05T16:03:52.429Z,99718.81
2023-03-05T16:06:59.179Z,99732.56
2023-03-05T16:10:04.967Z,99728.28
2023-03-05T16:13:12.435Z,99727.25
2023-03-05T16:16:15.800Z,99729.69
2023-03-05T16:19:20.447Z,99738.75
2023-03-05T16:22:24.143Z,99746.50
2023-03-05T16:25:27.284Z,99742.22
2023-03-05T16:28:30.811Z,99736.66
2023-03-05T16:31:35.774Z,99750.84
2023-03-05T16:34:40.709Z,99735.69
2023-03-05T16:37:52.085Z,99746.19
2023-03-05T16:41:07.914Z,99747.78
2023-03-05T16:44:13.434Z,99754.44
2023-03-05T16:47:18.784Z,99749.13
2023-03-05T16:50:21.784Z,99747.56
2023-03-05T16:53:25.152Z,99741.81
2023-03-05T16:56:28.747Z,99748.28
2023-03-05T16:59:35.206Z,99737.31
2023-03-05T17:02:38.540Z,99746.06
2023-03-05T17:05:44.597Z,99754.22
2023-03-05T17:08:49.956Z,99755.97
2023-03-05T17:11:55.777Z,99755.22
2023-03-05T17:15:02.168Z,99748.47
2023-03-05T17:18:07.621Z,99756.31
2023-03-05T17:21:11.833Z,99751.22
2023-03-05T17:24:16.648Z,99752.62
2023-03-05T17:27:23.154Z,99754.19
2023-03-05T17:30:26.472Z,99754.19
2023-03-05T17:33:30.675Z,99764.09
2023-03-05T17:36:36.703Z,99759.50
2023-03-05T17:39:42.966Z,99766.59
2023-03-05T17:42:47.290Z,99755.50
2023-03-05T17:45:51.115Z,99767.03
2023-03-05T17:48:55.128Z,99777.63
2023-03-05T17:51:58.514Z,99772.63
2023-03-05T17:55:02.636Z,99774.13
2023-03-05T17:58:06.039Z,99765.66
2023-03-05T18:01:12.941Z,99774.16
2023-03-05T18:04:20.592Z,99774.00
2023-03-05T18:07:24.817Z,99769.59
2023-03-05T18:10:30.968Z,99769.06
2023-03-05T18:13:33.653Z,99759.50
2023-03-05T18:16:37.977Z,99766.50
2023-03-05T18:19:41.013Z,99761.03
2023-03-05T18:22:47.781Z,99758.50
2023-03-05T18:25:51.388Z,99752.34
2023-03-05T18:28:54.020Z,99748.19
2023-03-05T18:31:57.830Z,99756.94
2023-03-05T18:35:00.948Z,99755.03
2023-03-05T18:38:06.123Z,99755.28
2023-03-05T18:41:09.529Z,99754.09
2023-03-05T18:44:14.873Z,99761.19
2023-03-05T18:47:17.692Z,99754.03
2023-03-05T18:50:21.368Z,99747.44
2023-03-05T18:53:25.688Z,99745.00
2023-03-05T18:56:28.490Z,99743.59
2023-03-05T18:59:32.993Z,99746.09
2023-03-05T19:02:37.026Z,99743.75
2023-03-05T19:05:43.187Z,99741.13
2023-03-05T19:08:47.303Z,99742.09
2023-03-05T19:11:51.730Z,99751.09
2023-03-05T19:14:59.943Z,99747.09
2023-03-05T19:18:05.615Z,99743.69
2023-03-05T19:21:10.839Z,99743.91
2023-03-05T19:24:15.573Z,99744.91
2023-03-05T19:27:19.984Z,99742.75
2023-03-05T19:30:24.101Z,99739.19
2023-03-05T19:33:26.488Z,99744.59
2023-03-05T19:36:30.801Z,99753.16
2023-03-05T19:39:35.114Z,99748.91
2023-03-05T19:42:40.456Z,99747.50
2023-03-05T19:45:44.072Z,99746.41
2023-03-05T19:48:48.819Z,99743.91
2023-03-05T19:51:52.187Z,99741.25
2023-03-05T19:54:55.298Z,99744.25
2023-03-05T19:57:58.798Z,99742.72
2023-03-05T20:01:16.347Z,99747.22
2023-03-05T20:04:22.820Z,99737.91
2023-03-05T20:07:27.642Z,99739.63
2023-03-05T20:10:31.141Z,99727.56
2023-03-05T20:13:33.996Z,99728.72
2023-03-05T20:16:40.879Z,99733.63
2023-03-05T20:19:44.009Z,99725.28
2023-03-05T20:22:48.600Z,99732.13
2023-03-05T20:25:52.118Z,99730.22
2023-03-05T20:28:55.238Z,99729.31
2023-03-05T20:31:59.108Z,99726.50
2023-03-05T20:35:02.793Z,99731.81
2023-03-05T20:38:21.684Z,99731.59
2023-03-05T20:41:27.435Z,99735.44
2023-03-05T20:44:31.470Z,99730.50
2023-03-05T20:47:41.627Z,99731.41
2023-03-05T20:50:47.518Z,99729.47
2023-03-05T20:54:01.154Z,99726.22
2023-03-05T20:57:04.383Z,99724.56
2023-03-05T21:00:08.468Z,99724.56
2023-03-05T21:03:11.741Z,99720.72
2023-03-05T21:06:14.869Z,99724.13
2023-03-05T21:09:18.180Z,99717.44
2023-03-05T21:12:21.974Z,99718.00
2023-03-05T21:15:26.617Z,99715.56
2023-03-05T21:18:29.998Z,99713.31
2023-03-05T21:21:35.037Z,99715.62
2023-03-05T21:25:21.180Z,99715.47
2023-03-05T21:28:27.118Z,99709.47
2023-03-05T21:31:33.908Z,99709.72
2023-03-05T21:34:37.384Z,99708.12
2023-03-05T21:37:44.983Z,99713.06
2023-03-05T21:40:51.208Z,99713.72
2023-03-05T21:43:54.241Z,99715.97
2023-03-05T21:46:57.868Z,99716.81
2023-03-05T21:50:02.367Z,99714.75
2023-03-05T21:53:08.735Z,99714.16
2023-03-05T21:56:26.188Z,99713.16
2023-03-05T21:59:31.618Z,99709.69
2023-03-05T22:02:35.413Z,99703.28
2023-03-05T22:05:38.399Z,99698.94
2023-03-05T22:08:40.545Z,99701.13
2023-03-05T22:11:44.192Z,99697.53
2023-03-05T22:14:47.011Z,99697.53
2023-03-05T22:17:51.180Z,99696.97
2023-03-05T22:20:56.051Z,99689.97
2023-03-05T22:24:00.042Z,99686.63
2023-03-05T22:27:04.038Z,99690.06
2023-03-05T22:30:08.798Z,99687.56
2023-03-05T22:33:14.000Z,99692.12
2023-03-05T22:36:17.541Z,99685.22
2023-03-05T22:39:21.730Z,99684.94
2023-03-05T22:42:30.749Z,99681.44
2023-03-05T22:45:37.835Z,99678.97
2023-03-05T22:48:40.413Z,99684.09
2023-03-05T22:51:43.817Z,99673.41
2023-03-05T22:54:50.603Z,99676.13
2023-03-05T22:57:55.887Z,99671.97
2023-03-05T23:00:59.390Z,99675.59
2023-03-05T23:04:41.744Z,99680.53
2023-03-05T23:07:45.540Z,99668.84
2023-03-05T23:10:50.605Z,99675.34
2023-03-05T23:13:56.045Z,99669.97
2023-03-05T23:16:59.255Z,99663.88
2023-03-05T23:20:02.533Z,99663.22
2023-03-05T23:23:07.066Z,99662.47
2023-03-05T23:26:12.601Z,99661.47
2023-03-05T23:30:00.348Z,99657.16
2023-03-05T23:33:08.561Z,99662.12
2023-03-05T23:36:12.822Z,99659.50
2023-03-05T23:39:17.396Z,99671.22
2023-03-05T23:42:22.222Z,99656.91
2023-03-05T23:45:26.752Z,99653.19
2023-03-05T23:48:31.282Z,99655.00
2023-03-05T23:51:36.003Z,99652.25
2023-03-05T23:54:39.713Z,99649.19
2023-03-05T23:57:42.332Z,99644.69
